Saint Cloud, Minnesota
Current Conditions -  °F | °C
As of 10:53 AM on Friday 28 Nov 2014 (Local Time) from KSTC Reporting Station
Overcast Overcast  
Wind Chill:   Ceiling: 1800
Heat Index: 16°   Visibility: 10mi
Dew Point:   Wind: 9mph
Humidity: 74%   Direction: 100°E
Pressure: 29.94"   Gusts: NA
Location:  45.55°N, 94.06°W
Report Text: KSTC 281653Z 10008KT 10SM OVC018 M09/M13 A2994 RMK AO2 SLP168 T10891128
Loading
Personal Weather Stations






























Interactive Weather Map New forecast layout! Learn more

10-Day Weather Forecast

Advertisements
Track Severe Weather on mobile